Time;durP1;ratioP1;P1;durP2;ratioP2;P2;SDS_P1;SDS_P2;PMS_P1;PMS_P2;Temp;Humidity;BMP_temperature;BMP_pressure;BME280_temperature;BME280_humidity;BME280_pressure;Samples;Min_cycle;Max_cycle;Signal;HPM_P1;HPM_P2
2021/01/10 00:00:24;;;;;;;13.48;9.75;;;;;;;0.33;97.46;99992.73;1726576;81;21762;-66
2021/01/10 00:02:56;;;;;;;10.95;8.13;;;;;;;0.33;97.46;99992.73;1742949;81;21488;-66
2021/01/10 00:05:30;;;;;;;10.95;8.45;;;;;;;0.43;97.29;100018.84;1752883;80;21615;-65
2021/01/10 00:07:59;;;;;;;10.90;8.65;;;;;;;0.41;97.21;100011.56;1730610;81;21195;-66
2021/01/10 00:10:27;;;;;;;14.47;8.73;;;;;;;0.39;97.12;100008.12;1728227;81;21642;-66
2021/01/10 00:13:00;;;;;;;11.75;7.60;;;;;;;0.38;97.13;100009.00;1728928;81;22577;-66
2021/01/10 00:15:30;;;;;;;12.90;8.08;;;;;;;0.37;97.11;100017.58;1725759;82;21627;-66
2021/01/10 00:17:59;;;;;;;9.53;7.58;;;;;;;0.36;97.07;100016.69;1745676;81;21104;-65
2021/01/10 00:20:27;;;;;;;9.23;7.17;;;;;;;0.31;96.95;100016.27;1738847;81;21666;-66
2021/01/10 00:22:56;;;;;;;11.15;7.58;;;;;;;0.26;96.75;100024.44;1721530;82;21218;-65
2021/01/10 00:25:24;;;;;;;9.80;6.85;;;;;;;0.19;96.70;100020.99;1731425;82;21200;-66
2021/01/10 00:27:52;;;;;;;9.40;6.70;;;;;;;0.16;96.70;100019.28;1723736;82;21643;-66
2021/01/10 00:30:21;;;;;;;11.10;8.38;;;;;;;0.16;96.87;100023.13;1719871;82;21007;-66
2021/01/10 00:32:56;;;;;;;11.83;7.97;;;;;;;0.25;97.20;100030.41;1726654;82;21168;-66
2021/01/10 00:35:24;;;;;;;9.40;7.10;;;;;;;0.35;97.44;100029.55;1732235;82;21212;-66
2021/01/10 00:37:56;;;;;;;9.28;6.95;;;;;;;0.37;97.37;100026.56;1722064;82;21599;-65
2021/01/10 00:40:27;;;;;;;10.00;6.78;;;;;;;0.36;97.17;100029.97;1719784;82;21585;-65
2021/01/10 00:42:54;;;;;;;10.00;6.80;;;;;;;0.38;97.27;100029.55;1724324;82;21579;-66
2021/01/10 00:45:21;;;;;;;12.45;7.60;;;;;;;0.43;97.19;100033.83;1724205;82;21053;-65
2021/01/10 00:47:51;;;;;;;10.35;7.28;;;;;;;0.38;96.93;100035.53;1720358;82;21012;-66
2021/01/10 00:50:17;;;;;;;11.50;7.90;;;;;;;0.35;96.72;100034.69;1719800;82;21603;-66
2021/01/10 00:52:44;;;;;;;11.25;7.55;;;;;;;0.29;96.60;100035.98;1721207;82;20982;-66
2021/01/10 00:55:12;;;;;;;11.35;8.08;;;;;;;0.32;96.94;100035.98;1731454;82;21584;-66
2021/01/10 00:57:39;;;;;;;10.10;7.45;;;;;;;0.35;97.05;100032.12;1720476;82;21250;-65
2021/01/10 01:00:13;;;;;;;9.25;6.40;;;;;;;0.33;96.79;100046.67;1740319;82;21553;-65
2021/01/10 01:02:40;;;;;;;10.30;7.25;;;;;;;0.25;96.53;100038.11;1720123;82;21207;-66
2021/01/10 01:05:09;;;;;;;11.95;7.42;;;;;;;0.21;96.57;100043.25;1720057;82;21136;-66
2021/01/10 01:07:37;;;;;;;10.45;7.20;;;;;;;0.26;96.85;100044.98;1719814;82;20986;-66
2021/01/10 01:10:05;;;;;;;9.95;7.25;;;;;;;0.31;97.00;100050.94;1733636;82;21081;-66
2021/01/10 01:12:32;;;;;;;10.90;7.37;;;;;;;0.31;97.00;100050.94;1724464;81;21019;-66
2021/01/10 01:14:59;;;;;;;11.38;7.83;;;;;;;0.32;97.08;100051.39;1738674;82;22167;-66
2021/01/10 01:17:27;;;;;;;8.50;6.87;;;;;;;0.34;97.21;100053.54;1726192;82;20998;-66
2021/01/10 01:19:54;;;;;;;11.65;7.75;;;;;;;0.36;97.18;100051.80;1733747;80;21532;-66
2021/01/10 01:22:21;;;;;;;10.63;7.30;;;;;;;0.40;97.28;100053.53;1733324;81;21093;-66
2021/01/10 01:24:48;;;;;;;12.53;7.53;;;;;;;0.40;97.14;100058.67;1738568;81;21006;-66
2021/01/10 01:27:15;;;;;;;11.25;8.05;;;;;;;0.38;96.98;100057.80;1745203;80;21649;-66
2021/01/10 01:29:42;;;;;;;9.50;6.92;;;;;;;0.36;96.94;100054.37;1739164;80;21053;-66
2021/01/10 01:32:10;;;;;;;8.83;6.97;;;;;;;0.37;97.08;100056.11;1737061;81;21583;-67
2021/01/10 01:34:37;;;;;;;10.03;7.05;;;;;;;0.38;97.04;100059.09;1734445;81;28309;-66
2021/01/10 01:37:04;;;;;;;8.58;6.67;;;;;;;0.43;97.13;100061.23;1737447;81;21662;-67
2021/01/10 01:39:32;;;;;;;9.43;7.62;;;;;;;0.44;97.09;100065.50;1739327;80;22683;-66
2021/01/10 01:41:59;;;;;;;11.25;7.60;;;;;;;0.54;97.31;100059.51;1758983;81;21207;-66
2021/01/10 01:44:27;;;;;;;14.25;8.40;;;;;;;0.62;97.33;100062.92;1741750;81;21035;-66
2021/01/10 01:46:54;;;;;;;12.73;8.18;;;;;;;0.60;97.18;100053.51;1748332;81;21148;-66
2021/01/10 01:49:23;;;;;;;11.43;7.92;;;;;;;0.57;97.01;100059.50;1746215;81;27164;-66
2021/01/10 01:51:51;;;;;;;13.35;8.70;;;;;;;0.59;97.13;100059.52;1742645;81;21216;-66
2021/01/10 01:54:19;;;;;;;11.48;8.25;;;;;;;0.54;96.83;100062.52;1746152;81;21152;-66
2021/01/10 01:56:47;;;;;;;9.95;8.00;;;;;;;0.49;96.71;100067.64;1740512;81;20956;-66
2021/01/10 01:59:14;;;;;;;;;;;;;;;0.46;96.68;100071.50;1743492;81;21025;-66
2021/01/10 02:01:42;;;;;;;12.88;8.48;;;;;;;0.41;96.66;100074.50;1736108;81;20496;-66
2021/01/10 02:04:20;;;;;;;13.43;9.00;;;;;;;0.37;96.66;100074.09;1754993;79;21210;-66
2021/01/10 02:07:08;;;;;;;13.70;9.30;;;;;;;0.34;96.77;100068.95;1746893;81;21552;-66
2021/01/10 02:09:49;;;;;;;14.43;10.25;;;;;;;0.36;96.96;100067.22;1743384;81;20986;-66
2021/01/10 02:12:20;;;;;;;16.48;10.95;;;;;;;0.36;97.00;100069.78;1746616;81;21053;-66
2021/01/10 02:15:08;;;;;;;13.70;9.33;;;;;;;0.36;96.94;100072.35;1751681;81;21538;-66
2021/01/10 02:17:37;;;;;;;16.12;9.85;;;;;;;0.33;96.84;100069.79;1738797;81;21661;-66
2021/01/10 02:20:30;;;;;;;13.38;9.90;;;;;;;0.29;96.73;100071.94;1749957;81;21622;-66
2021/01/10 02:23:15;;;;;;;17.37;11.85;;;;;;;0.30;96.90;100071.08;1764844;81;21167;-66
2021/01/10 02:25:45;;;;;;;18.05;10.90;;;;;;;0.30;96.98;100074.92;1754465;80;21169;-66
2021/01/10 02:28:19;;;;;;;17.80;11.25;;;;;;;0.31;97.05;100084.34;1748128;81;21176;-66
2021/01/10 02:30:46;;;;;;;18.85;13.85;;;;;;;0.30;96.98;100077.50;1744166;81;21203;-66
2021/01/10 02:33:45;;;;;;;27.50;15.88;;;;;;;0.29;96.88;100084.78;1745528;80;21558;-66
2021/01/10 02:36:40;;;;;;;24.80;15.70;;;;;;;0.27;96.78;100083.48;1750991;81;21531;-66
2021/01/10 02:39:18;;;;;;;26.12;15.00;;;;;;;0.28;96.91;100097.17;1751451;80;21201;-66
2021/01/10 02:41:57;;;;;;;26.60;15.23;;;;;;;0.33;97.14;100087.77;1742850;81;21095;-66
2021/01/10 02:44:41;;;;;;;23.57;14.93;;;;;;;0.36;97.16;100092.91;1761088;81;21110;-66
2021/01/10 02:47:09;;;;;;;22.22;14.45;;;;;;;0.36;97.09;100091.62;1745441;81;21096;-66
2021/01/10 02:49:37;;;;;;;26.68;16.07;;;;;;;0.33;96.96;100091.19;1745682;81;21223;-66
2021/01/10 02:52:05;;;;;;;23.07;16.17;;;;;;;0.34;96.99;100094.64;1742787;81;21044;-66
2021/01/10 02:54:31;;;;;;;;;;;;;;;0.32;96.99;100092.48;1745958;81;21076;-66
2021/01/10 02:57:18;;;;;;;24.23;15.60;;;;;;;0.31;96.88;100102.31;1742705;81;21293;-66
2021/01/10 02:59:48;;;;;;;22.20;15.08;;;;;;;0.28;96.80;100107.45;1748673;81;21072;-66
2021/01/10 03:02:18;;;;;;;25.15;15.03;;;;;;;0.31;97.07;100108.73;1759340;80;21159;-66
2021/01/10 03:04:47;;;;;;;24.40;14.58;;;;;;;0.35;97.27;100109.18;1753342;80;21013;-66
2021/01/10 03:07:16;;;;;;;20.50;14.63;;;;;;;0.36;97.13;100098.04;1764236;81;21579;-66
2021/01/10 03:09:43;;;;;;;22.37;14.13;;;;;;;0.35;97.09;100095.05;1751509;81;22235;-66
2021/01/10 03:12:26;;;;;;;21.55;14.13;;;;;;;0.32;96.98;100096.34;1759535;80;28315;-66
2021/01/10 03:14:59;;;;;;;22.07;14.83;;;;;;;0.28;96.82;100092.04;1744459;81;21558;-66
2021/01/10 03:17:43;;;;;;;23.87;14.33;;;;;;;0.27;96.89;100094.19;1742345;81;21026;-66
2021/01/10 03:20:21;;;;;;;25.65;13.95;;;;;;;0.32;97.12;100091.20;1762928;80;21149;-66
2021/01/10 03:22:49;;;;;;;23.45;14.53;;;;;;;0.32;97.08;100093.77;1743931;81;24455;-66
2021/01/10 03:25:22;;;;;;;21.25;13.98;;;;;;;0.31;97.12;100085.62;1751617;81;20969;-66
2021/01/10 03:27:49;;;;;;;20.25;13.40;;;;;;;0.30;96.99;100098.05;1743059;81;20949;-66
2021/01/10 03:30:18;;;;;;;19.62;14.35;;;;;;;0.32;97.15;100097.63;1762543;80;21132;-66
2021/01/10 03:32:46;;;;;;;19.55;12.58;;;;;;;0.35;97.19;100106.61;1742756;80;21097;-66
2021/01/10 03:35:15;;;;;;;;;;;;;;;0.37;97.22;100107.48;1752867;81;21609;-66
2021/01/10 03:37:43;;;;;;;19.32;12.68;;;;;;;0.31;96.82;100105.77;1744879;81;20688;-66
2021/01/10 03:40:11;;;;;;;21.60;13.58;;;;;;;0.25;96.82;100107.45;1744416;81;21124;-66
2021/01/10 03:42:39;;;;;;;23.70;13.60;;;;;;;0.28;97.07;100106.17;1746413;81;21175;-65
2021/01/10 03:45:08;;;;;;;;;;;;;;;0.30;97.16;100103.18;1760648;80;21650;-66
2021/01/10 03:47:35;;;;;;;19.00;12.40;;;;;;;0.32;97.20;100095.05;1754834;81;21102;-65
2021/01/10 03:50:05;;;;;;;19.92;14.10;;;;;;;0.29;97.09;100097.63;1760897;80;21270;-66
2021/01/10 03:52:34;;;;;;;20.05;12.68;;;;;;;0.32;97.26;100096.34;1742921;81;21237;-66
2021/01/10 03:55:01;;;;;;;21.17;13.50;;;;;;;0.30;97.06;100101.90;1746516;81;21042;-66
2021/01/10 03:57:28;;;;;;;21.73;13.62;;;;;;;0.23;96.85;100091.20;1742761;80;21207;-66
2021/01/10 03:59:55;;;;;;;25.02;15.08;;;;;;;0.24;97.02;100092.91;1760798;81;22638;-66
2021/01/10 04:02:22;;;;;;;18.77;12.30;;;;;;;0.23;97.11;100083.50;1750447;81;21048;-66
2021/01/10 04:04:49;;;;;;;18.37;11.95;;;;;;;0.21;96.93;100081.77;1742527;81;21124;-66
2021/01/10 04:07:16;;;;;;;19.87;13.03;;;;;;;0.13;96.63;100089.89;1760267;80;21040;-65
2021/01/10 04:09:43;;;;;;;18.80;12.40;;;;;;;0.04;96.56;100095.03;1744404;81;21682;-66
2021/01/10 04:12:11;;;;;;;19.48;12.15;;;;;;;-0.03;96.53;100092.01;1740041;81;21205;-66
2021/01/10 04:14:38;;;;;;;20.40;13.95;;;;;;;-0.09;96.59;100088.16;1734211;81;21128;-66
2021/01/10 04:17:05;;;;;;;;;;;;;;;-0.09;96.81;100084.30;1736571;82;21069;-66
2021/01/10 04:19:32;;;;;;;23.98;13.30;;;;;;;-0.05;96.99;100086.03;1740740;81;20485;-65
2021/01/10 04:21:59;;;;;;;26.73;14.83;;;;;;;-0.02;97.19;100083.47;1756668;80;21018;-66
2021/01/10 04:24:26;;;;;;;24.87;14.50;;;;;;;0.01;97.24;100083.47;1755099;80;21628;-66
2021/01/10 04:26:52;;;;;;;19.48;13.83;;;;;;;0.08;97.38;100080.05;1739670;81;20997;-66
2021/01/10 04:29:20;;;;;;;20.35;13.60;;;;;;;0.15;97.47;100084.34;1753212;81;20978;-66
2021/01/10 04:31:49;;;;;;;19.98;13.15;;;;;;;0.20;97.44;100082.64;1750730;81;21131;-66
2021/01/10 04:34:17;;;;;;;18.85;12.13;;;;;;;0.17;97.11;100082.64;1751966;81;21523;-66
2021/01/10 04:36:45;;;;;;;19.73;12.82;;;;;;;0.15;96.98;100089.48;1742970;81;21599;-66
2021/01/10 04:39:12;;;;;;;19.73;13.05;;;;;;;0.15;97.06;100089.48;1731472;81;21076;-66
2021/01/10 04:41:41;;;;;;;18.10;12.28;;;;;;;0.20;97.28;100085.20;1732634;81;20997;-66
2021/01/10 04:44:08;;;;;;;21.27;12.95;;;;;;;0.18;97.10;100086.91;1737924;80;21033;-66
2021/01/10 04:46:35;;;;;;;18.77;12.37;;;;;;;0.17;97.09;100083.92;1744275;81;21593;-66
2021/01/10 04:49:03;;;;;;;21.45;12.85;;;;;;;0.18;97.12;100089.48;1719957;81;21205;-66
2021/01/10 04:51:31;;;;;;;19.82;12.23;;;;;;;0.17;97.03;100083.92;1738729;81;26831;-66
2021/01/10 04:54:02;;;;;;;17.00;12.60;;;;;;;0.19;97.10;100082.62;1736969;81;21119;-66
2021/01/10 04:56:30;;;;;;;20.75;12.45;;;;;;;0.19;97.13;100086.04;1731802;81;21195;-66
2021/01/10 04:59:04;;;;;;;17.87;11.38;;;;;;;0.20;97.10;100072.37;1743552;81;21564;-66
2021/01/10 05:01:48;;;;;;;17.15;11.50;;;;;;;0.18;96.99;100068.93;1741399;80;21202;-66
2021/01/10 05:04:17;;;;;;;18.95;11.88;;;;;;;0.17;96.98;100069.80;1731542;81;21073;-65
2021/01/10 05:06:45;;;;;;;18.35;11.85;;;;;;;0.14;96.89;100073.66;1731404;81;21037;-66
2021/01/10 05:09:13;;;;;;;18.57;12.58;;;;;;;0.11;96.84;100073.66;1731558;81;21590;-66
2021/01/10 05:11:42;;;;;;;15.65;11.65;;;;;;;0.12;96.97;100079.20;1759204;81;21195;-66
2021/01/10 05:14:09;;;;;;;19.48;12.53;;;;;;;0.14;97.05;100067.23;1753384;81;23191;-65
2021/01/10 05:16:38;;;;;;;19.52;12.10;;;;;;;0.11;96.89;100074.94;1748864;81;21749;-65
2021/01/10 05:19:05;;;;;;;21.73;13.70;;;;;;;0.07;96.81;100074.48;1730706;81;21666;-66
2021/01/10 05:21:32;;;;;;;21.07;13.38;;;;;;;0.00;96.59;100071.50;1751552;81;21223;-66
2021/01/10 05:24:00;;;;;;;22.27;13.50;;;;;;;-0.06;96.58;100079.17;1752662;81;21107;-66
2021/01/10 05:26:34;;;;;;;17.15;12.15;;;;;;;-0.06;96.77;100079.17;1769368;80;21200;-66
2021/01/10 05:29:09;;;;;;;20.30;12.28;;;;;;;-0.10;96.67;100078.31;1760069;80;21067;-66
2021/01/10 05:31:43;;;;;;;19.10;12.50;;;;;;;-0.14;96.72;100077.02;1750931;81;20978;-66
2021/01/10 05:34:16;;;;;;;17.75;12.30;;;;;;;-0.12;97.02;100075.31;1771363;79;21013;-66
2021/01/10 05:36:44;;;;;;;18.85;11.85;;;;;;;-0.12;96.95;100076.59;1756767;81;21559;-66
2021/01/10 05:39:27;;;;;;;19.62;14.13;;;;;;;-0.15;96.95;100072.75;1760792;79;21661;-66
2021/01/10 05:42:05;;;;;;;20.48;13.45;;;;;;;-0.12;97.10;100074.03;1745335;81;21238;-65
2021/01/10 05:44:44;;;;;;;17.67;12.20;;;;;;;-0.16;97.01;100071.05;1748063;81;20975;-66
2021/01/10 05:47:13;;;;;;;20.52;13.78;;;;;;;-0.18;96.97;100073.59;1762558;81;21016;-66
2021/01/10 05:49:54;;;;;;;17.30;11.73;;;;;;;-0.23;96.84;100077.42;1786601;80;22129;-65
2021/01/10 05:52:23;;;;;;;19.20;12.68;;;;;;;-0.26;96.82;100083.84;1770199;80;22702;-65
2021/01/10 05:57:29;;;;;;;14.50;10.53;;;;;;;-0.27;96.82;100089.83;1871411;75;22183;-65
2021/01/10 06:00:00;;;;;;;16.02;10.53;;;;;;;-0.33;96.88;100083.41;1851996;77;20984;-64
2021/01/10 06:02:37;;;;;;;14.85;10.72;;;;;;;-0.33;96.91;100080.84;1826790;77;22408;-64
2021/01/10 06:05:20;;;;;;;17.35;11.65;;;;;;;-0.34;96.99;100078.25;1842588;76;21028;-64
2021/01/10 06:07:49;;;;;;;16.12;11.00;;;;;;;-0.36;96.92;100075.70;1855979;77;20956;-64
2021/01/10 06:10:29;;;;;;;19.20;11.57;;;;;;;-0.42;96.68;100070.56;1848626;76;20946;-64
2021/01/10 06:13:07;;;;;;;19.80;13.38;;;;;;;-0.49;96.53;100082.92;1851525;77;20972;-65
2021/01/10 06:15:36;;;;;;;17.90;12.78;;;;;;;-0.55;96.49;100079.06;1853914;75;21304;-65
2021/01/10 06:18:05;;;;;;;19.67;13.25;;;;;;;-0.63;96.30;100085.87;1842811;77;21009;-64
2021/01/10 06:20:34;;;;;;;19.23;13.32;;;;;;;-0.63;96.58;100088.43;1851963;77;20973;-65
2021/01/10 06:23:04;;;;;;;18.10;12.68;;;;;;;-0.57;96.93;100083.32;1853675;77;21086;-65
2021/01/10 06:25:42;;;;;;;18.95;12.20;;;;;;;-0.57;96.95;100096.14;1854161;77;21187;-65
2021/01/10 06:28:18;;;;;;;25.53;15.17;;;;;;;-0.58;96.89;100093.16;1846232;77;21183;-64
2021/01/10 06:31:01;;;;;;;;;;;;;;;-0.56;97.06;100082.45;1842116;77;21700;-64
2021/01/10 06:33:31;;;;;;;22.98;14.98;;;;;;;-0.52;97.21;100091.89;1845649;77;20189;-64
2021/01/10 06:36:06;;;;;;;21.35;13.75;;;;;;;-0.50;97.25;100087.63;1836693;77;21502;-64
2021/01/10 06:38:37;;;;;;;26.90;15.95;;;;;;;-0.58;96.90;100094.44;1839981;77;21210;-65
2021/01/10 06:41:28;;;;;;;24.90;16.00;;;;;;;-0.64;96.81;100100.80;1841517;77;21605;-64
2021/01/10 06:43:59;;;;;;;26.62;16.23;;;;;;;-0.68;96.84;100094.38;1837332;77;21115;-65
2021/01/10 06:46:26;;;;;;;31.00;15.30;;;;;;;-0.71;96.84;100100.78;1833174;77;21032;-65
2021/01/10 06:48:54;;;;;;;25.23;16.35;;;;;;;-0.73;96.81;100101.22;1836500;77;21617;-65
2021/01/10 06:51:25;;;;;;;30.88;17.00;;;;;;;-0.75;96.80;100102.91;1848686;77;21004;-65
2021/01/10 06:53:53;;;;;;;31.33;17.75;;;;;;;-0.73;96.93;100111.48;1848477;77;21766;-65
2021/01/10 06:56:20;;;;;;;31.62;17.23;;;;;;;-0.71;96.98;100107.63;1838765;77;21019;-65
2021/01/10 06:59:10;;;;;;;32.50;17.07;;;;;;;-0.70;97.05;100111.49;1848068;75;21669;-65
2021/01/10 07:01:51;;;;;;;29.25;18.02;;;;;;;-0.71;96.93;100117.45;1846224;77;21625;-65
2021/01/10 07:04:23;;;;;;;27.42;16.10;;;;;;;-0.71;96.82;100115.31;1849935;77;21629;-64
2021/01/10 07:06:53;;;;;;;19.82;13.95;;;;;;;-0.71;96.78;100120.02;1848350;77;21631;-65
2021/01/10 07:09:22;;;;;;;20.00;13.22;;;;;;;-0.65;97.00;100120.90;1850655;77;21017;-64
2021/01/10 07:11:50;;;;;;;19.40;12.93;;;;;;;-0.57;97.19;100123.08;1837678;77;21190;-64
2021/01/10 07:14:24;;;;;;;18.67;12.20;;;;;;;-0.49;97.27;100129.09;1830324;77;21597;-64
2021/01/10 07:16:56;;;;;;;19.42;13.48;;;;;;;-0.47;97.21;100124.41;1836399;77;21717;-65
2021/01/10 07:19:27;;;;;;;24.07;13.70;;;;;;;-0.43;97.11;100126.55;1848109;77;21197;-65
2021/01/10 07:21:55;;;;;;;22.48;14.98;;;;;;;-0.41;97.16;100128.70;1825252;77;21009;-65
2021/01/10 07:24:27;;;;;;;19.62;13.72;;;;;;;-0.35;97.30;100128.72;1834985;77;24751;-65
2021/01/10 07:27:00;;;;;;;21.60;12.58;;;;;;;-0.30;97.26;100124.47;1841507;77;21067;-65
2021/01/10 07:32:20;;;;;;;19.95;12.63;;;;;;;-0.26;96.92;100126.17;1916814;74;22776;-65
2021/01/10 07:34:52;;;;;;;19.40;12.03;;;;;;;-0.28;96.91;100125.34;1891416;75;20975;-65
2021/01/10 07:37:27;;;;;;;25.77;12.53;;;;;;;-0.27;96.85;100132.17;1894644;75;22089;-65
2021/01/10 07:39:59;;;;;;;20.95;13.00;;;;;;;-0.26;96.84;100128.74;1879065;75;21429;-65
2021/01/10 07:42:38;;;;;;;22.05;13.72;;;;;;;-0.28;96.63;100133.03;1894586;75;21026;-65
2021/01/10 07:45:20;;;;;;;20.90;14.43;;;;;;;-0.24;96.62;100138.59;1894603;75;20967;-65
2021/01/10 07:47:49;;;;;;;21.12;14.03;;;;;;;-0.21;96.62;100143.31;1890381;75;20940;-65
2021/01/10 07:50:23;;;;;;;22.80;13.43;;;;;;;-0.21;96.53;100136.90;1894437;75;21395;-65
2021/01/10 07:52:58;;;;;;;18.92;12.78;;;;;;;-0.19;96.58;100141.63;1881511;75;20980;-65
2021/01/10 07:55:30;;;;;;;19.82;12.15;;;;;;;-0.15;96.67;100143.33;1873859;74;20952;-65
2021/01/10 07:58:07;;;;;;;17.92;12.37;;;;;;;-0.11;96.64;100139.91;1883297;74;21597;-65
2021/01/10 08:00:48;;;;;;;16.30;11.88;;;;;;;-0.05;96.75;100145.08;1875335;74;21007;-65
2021/01/10 08:03:27;;;;;;;16.87;12.58;;;;;;;-0.01;96.67;100149.35;1867090;75;22157;-65
2021/01/10 08:06:06;;;;;;;19.67;13.30;;;;;;;0.03;96.83;100147.24;1893253;74;20987;-65
2021/01/10 08:08:48;;;;;;;18.75;13.45;;;;;;;0.12;96.86;100157.52;1873357;75;21050;-65
2021/01/10 08:11:32;;;;;;;17.35;12.47;;;;;;;0.24;97.11;100159.25;1853793;75;21537;-66
2021/01/10 08:13:59;;;;;;;18.40;13.18;;;;;;;0.37;97.18;100163.99;1870158;75;21168;-66
2021/01/10 08:16:33;;;;;;;20.02;14.68;;;;;;;0.47;97.13;100157.98;1874101;75;26017;-66
2021/01/10 08:19:06;;;;;;;22.05;14.95;;;;;;;0.55;97.08;100166.56;1889440;75;22278;-66
2021/01/10 08:21:34;;;;;;;21.80;13.83;;;;;;;0.59;96.97;100163.16;1881078;75;20971;-66
2021/01/10 08:24:03;;;;;;;17.55;12.90;;;;;;;0.64;96.95;100163.13;1863333;75;21130;-66
2021/01/10 08:26:30;;;;;;;15.93;11.73;;;;;;;0.62;96.74;100163.16;1867617;74;21019;-66
2021/01/10 08:29:06;;;;;;;19.15;13.30;;;;;;;0.61;96.58;100162.70;1888418;74;21536;-66
2021/01/10 08:31:33;;;;;;;19.05;13.85;;;;;;;0.56;96.28;100163.16;1873019;75;21622;-66
2021/01/10 08:34:06;;;;;;;17.73;12.28;;;;;;;0.56;96.27;100177.28;1859587;75;21023;-66
2021/01/10 08:36:36;;;;;;;20.30;14.55;;;;;;;0.57;96.32;100172.56;1831246;77;21193;-66
2021/01/10 08:39:12;;;;;;;19.55;13.28;;;;;;;0.61;96.37;100175.55;1816466;76;21004;-66
2021/01/10 08:41:45;;;;;;;19.65;14.93;;;;;;;0.62;96.21;100170.86;1801339;78;21659;-66
2021/01/10 08:44:18;;;;;;;20.72;16.52;;;;;;;0.63;96.10;100174.28;1790862;78;21711;-66
2021/01/10 08:46:49;;;;;;;20.37;15.05;;;;;;;0.62;95.99;100176.00;1795510;78;21123;-67
2021/01/10 08:49:18;;;;;;;23.27;14.73;;;;;;;0.64;96.06;100170.44;1805225;78;20988;-66
2021/01/10 08:54:27;;;;;;;19.73;14.40;;;;;;;0.76;95.97;100167.44;1883704;76;22381;-65
2021/01/10 08:56:59;;;;;;;27.42;19.87;;;;;;;0.74;95.90;100162.28;1851990;77;20964;-65
2021/01/10 08:59:38;;;;;;;65.35;39.67;;;;;;;0.76;95.86;100170.86;1848168;76;21189;-65
2021/01/10 09:02:09;;;;;;;110.88;69.35;;;;;;;0.81;95.86;100161.84;1749710;78;62572;-66
2021/01/10 09:04:42;;;;;;;89.85;56.83;;;;;;;0.84;95.78;100170.84;1588521;85;89226;-66
2021/01/10 09:07:23;;;;;;;39.38;27.35;;;;;;;0.84;95.77;100175.98;1655271;84;21133;-65
2021/01/10 09:10:04;;;;;;;31.48;21.50;;;;;;;0.95;96.08;100174.69;1643204;85;21083;-65
2021/01/10 09:12:42;;;;;;;29.63;20.68;;;;;;;0.98;95.87;100171.71;1646149;85;22206;-65
2021/01/10 09:15:19;;;;;;;28.45;20.00;;;;;;;0.97;95.55;100172.55;1671356;84;21054;-65
2021/01/10 09:17:53;;;;;;;;;;;;;;;1.00;95.67;100167.40;1679025;84;21605;-66
2021/01/10 09:20:26;;;;;;;37.33;23.32;;;;;;;1.04;95.65;100157.98;1669366;85;20329;-66
2021/01/10 09:22:56;;;;;;;72.67;42.65;;;;;;;1.05;95.56;100168.25;1681557;84;21149;-66
2021/01/10 09:25:23;;;;;;;31.77;19.95;;;;;;;1.09;95.63;100159.69;1670834;84;21157;-66
2021/01/10 09:28:16;;;;;;;27.95;18.27;;;;;;;1.16;95.69;100171.25;1681081;84;28295;-66
2021/01/10 09:30:54;;;;;;;34.27;20.23;;;;;;;1.21;95.73;100173.39;1676686;84;21014;-67
2021/01/10 09:33:32;;;;;;;28.00;19.20;;;;;;;1.40;96.08;100169.92;1680263;84;21216;-66
2021/01/10 09:36:03;;;;;;;26.60;18.60;;;;;;;1.47;95.85;100163.88;1660514;85;21277;-67
2021/01/10 09:38:32;;;;;;;31.23;20.00;;;;;;;1.50;95.67;100163.86;1664491;85;21310;-67
2021/01/10 09:41:15;;;;;;;32.25;24.12;;;;;;;1.49;95.37;100168.59;1666090;85;21698;-67
2021/01/10 09:43:48;;;;;;;40.23;30.43;;;;;;;1.49;95.37;100159.59;1654425;85;21168;-66
2021/01/10 09:46:34;;;;;;;31.95;23.18;;;;;;;1.51;95.30;100157.88;1638834;86;22020;-67
2021/01/10 09:49:08;;;;;;;37.00;27.58;;;;;;;1.49;95.08;100154.44;1675469;84;21165;-66
2021/01/10 09:51:43;;;;;;;25.50;18.32;;;;;;;1.45;95.05;100157.87;1641261;85;21455;-66
2021/01/10 09:54:17;;;;;;;37.42;30.23;;;;;;;1.47;95.07;100162.59;1665785;85;21034;-66
2021/01/10 09:56:51;;;;;;;24.57;16.67;;;;;;;1.50;95.11;100156.14;1668899;85;21232;-65
2021/01/10 09:59:44;;;;;;;25.95;16.75;;;;;;;1.56;95.12;100161.26;1661915;85;21011;-66
2021/01/10 10:02:24;;;;;;;25.25;16.82;;;;;;;1.63;95.18;100165.13;1678852;84;21180;-67
2021/01/10 10:04:58;;;;;;;26.60;18.25;;;;;;;1.79;95.62;100162.88;1681707;85;21219;-68
2021/01/10 10:07:35;;;;;;;24.32;17.02;;;;;;;1.82;95.10;100168.05;1679868;85;21231;-66
2021/01/10 10:10:25;;;;;;;28.07;18.25;;;;;;;1.86;95.06;100163.73;1682970;85;21153;-67
2021/01/10 10:12:59;;;;;;;27.75;18.32;;;;;;;1.88;95.04;100155.14;1675634;84;21248;-66
2021/01/10 10:15:54;;;;;;;34.03;20.05;;;;;;;1.95;94.88;100159.37;1703008;83;21213;-66
2021/01/10 10:18:31;;;;;;;37.95;24.02;;;;;;;2.02;95.03;100156.36;1678945;84;21424;-66
2021/01/10 10:21:00;;;;;;;39.78;24.92;;;;;;;2.08;95.04;100151.60;1678588;85;21224;-66
2021/01/10 10:23:27;;;;;;;37.35;23.52;;;;;;;2.13;95.06;100152.41;1674973;84;21642;-66
2021/01/10 10:25:54;;;;;;;29.35;19.77;;;;;;;2.17;94.91;100148.96;1669851;85;21018;-66
2021/01/10 10:28:22;;;;;;;27.37;17.57;;;;;;;2.26;95.19;100147.61;1658286;85;21216;-67
2021/01/10 10:30:49;;;;;;;;;;;;;;;2.33;94.93;100149.29;1679533;84;21196;-67
2021/01/10 10:33:16;;;;;;;28.02;18.82;;;;;;;2.26;94.46;100151.91;1677508;85;20237;-67
2021/01/10 10:35:44;;;;;;;27.85;18.82;;;;;;;2.19;94.49;100147.23;1679359;85;21093;-66
2021/01/10 10:38:11;;;;;;;27.65;18.55;;;;;;;2.16;94.56;100148.55;1679034;84;21147;-66
2021/01/10 10:40:39;;;;;;;26.90;19.37;;;;;;;2.29;95.08;100149.31;1684431;84;21282;-67
2021/01/10 10:43:08;;;;;;;;;;;;;;;2.39;94.96;100147.95;1691188;84;21197;-67
2021/01/10 10:45:34;;;;;;;28.92;19.32;;;;;;;2.48;95.02;100146.17;1680403;84;20540;-67
2021/01/10 10:48:01;;;;;;;27.07;20.35;;;;;;;2.43;94.62;100139.31;1692914;84;21137;-67
2021/01/10 10:50:29;;;;;;;30.15;21.27;;;;;;;2.46;94.89;100139.32;1657548;85;21162;-68
2021/01/10 10:52:56;;;;;;;;;;;;;;;2.53;94.83;100138.83;1655026;85;21213;-65
2021/01/10 10:55:25;;;;;;;27.82;17.82;;;;;;;2.66;95.15;100130.55;1634316;86;21871;-66
2021/01/10 10:57:52;;;;;;;26.75;16.40;;;;;;;2.74;95.08;100133.91;1635807;86;21199;-67
2021/01/10 11:00:22;;;;;;;19.92;12.98;;;;;;;2.77;94.86;100128.73;1635287;86;21187;-67
2021/01/10 11:02:52;;;;;;;19.82;13.60;;;;;;;2.73;94.57;100127.06;1623628;87;21144;-66
2021/01/10 11:05:22;;;;;;;20.88;15.00;;;;;;;2.68;94.75;100126.23;1624278;87;21213;-66
2021/01/10 11:07:48;;;;;;;10.93;8.00;;;;;;;2.65;94.59;100123.69;1610724;87;22133;-67
2021/01/10 11:10:15;;;;;;;11.68;8.30;;;;;;;2.70;95.07;100121.94;1632225;86;21168;-67
2021/01/10 11:12:44;;;;;;;12.95;7.70;;;;;;;2.74;95.07;100122.75;1603276;88;21235;-67
2021/01/10 11:15:13;;;;;;;9.58;7.53;;;;;;;2.80;95.25;100123.57;1602509;88;21133;-66
2021/01/10 11:17:40;;;;;;;12.53;7.90;;;;;;;2.80;94.98;100119.70;1604012;87;21247;-67
2021/01/10 11:20:10;;;;;;;8.25;6.65;;;;;;;2.77;95.05;100110.67;1607905;88;21301;-67
2021/01/10 11:22:37;;;;;;;9.33;6.83;;;;;;;2.74;95.55;100078.47;1609880;88;21240;-68
2021/01/10 11:25:07;;;;;;;11.08;7.70;;;;;;;3.08;95.59;100109.97;1613131;88;21168;-66
2021/01/10 11:27:34;;;;;;;14.80;11.05;;;;;;;3.15;95.17;100104.30;1604350;88;21670;-66
2021/01/10 11:30:04;;;;;;;19.37;15.78;;;;;;;3.18;95.07;100112.00;1629377;86;21163;-66
2021/01/10 11:32:34;;;;;;;17.87;13.28;;;;;;;3.34;95.41;100108.37;1635820;86;21291;-67
2021/01/10 11:35:00;;;;;;;14.05;11.40;;;;;;;3.38;94.81;100101.88;1633768;86;21215;-66
2021/01/10 11:37:27;;;;;;;12.75;9.28;;;;;;;3.00;93.91;100085.13;1639417;86;21164;-66
2021/01/10 11:39:54;;;;;;;10.85;8.03;;;;;;;3.00;93.91;100085.13;1639055;86;21143;-66
2021/01/10 11:42:21;;;;;;;12.47;9.75;;;;;;;2.89;93.98;100112.31;1634302;86;21247;-66
2021/01/10 11:44:49;;;;;;;7.53;5.87;;;;;;;2.81;94.18;100111.09;1633504;86;21340;-66
2021/01/10 11:47:16;;;;;;;8.25;6.65;;;;;;;2.71;94.38;100109.89;1633660;86;21171;-66
2021/01/10 11:49:43;;;;;;;15.80;6.83;;;;;;;2.70;94.94;100109.04;1629991;86;21069;-66